sensor_id;sensor_type;location;lat;lon;timestamp;pressure;altitude;pressure_sealevel;temperature;humidity
72157;BME280;60035;52.122;5.406;2024-02-26T00:00:52;100175.78;;;5.11;100.00
72157;BME280;60035;52.122;5.406;2024-02-26T00:03:23;100184.28;;;5.08;100.00
72157;BME280;60035;52.122;5.406;2024-02-26T00:05:55;100193.63;;;5.06;100.00
72157;BME280;60035;52.122;5.406;2024-02-26T00:08:26;100189.41;;;5.05;100.00
72157;BME280;60035;52.122;5.406;2024-02-26T00:10:57;100191.94;;;5.05;100.00
72157;BME280;60035;52.122;5.406;2024-02-26T00:13:29;100197.13;;;5.00;100.00
72157;BME280;60035;52.122;5.406;2024-02-26T00:16:03;100198.78;;;5.00;100.00
72157;BME280;60035;52.122;5.406;2024-02-26T00:18:35;100201.38;;;4.98;100.00
72157;BME280;60035;52.122;5.406;2024-02-26T00:21:06;100200.53;;;4.98;100.00
72157;BME280;60035;52.122;5.406;2024-02-26T00:23:37;100201.41;;;4.95;100.00
72157;BME280;60035;52.122;5.406;2024-02-26T00:26:09;100205.66;;;4.95;100.00
72157;BME280;60035;52.122;5.406;2024-02-26T00:28:40;100203.13;;;4.93;100.00
72157;BME280;60035;52.122;5.406;2024-02-26T00:31:14;100201.47;;;4.92;100.00
72157;BME280;60035;52.122;5.406;2024-02-26T00:33:45;100200.69;;;4.89;100.00
72157;BME280;60035;52.122;5.406;2024-02-26T00:36:16;100194.78;;;4.87;100.00
72157;BME280;60035;52.122;5.406;2024-02-26T00:38:48;100199.06;;;4.84;100.00
72157;BME280;60035;52.122;5.406;2024-02-26T00:41:21;100202.50;;;4.82;100.00
72157;BME280;60035;52.122;5.406;2024-02-26T00:43:52;100202.53;;;4.80;100.00
72157;BME280;60035;52.122;5.406;2024-02-26T00:46:26;100203.38;;;4.79;100.00
72157;BME280;60035;52.122;5.406;2024-02-26T00:48:57;100205.97;;;4.76;100.00
72157;BME280;60035;52.122;5.406;2024-02-26T00:51:30;100205.97;;;4.75;100.00
72157;BME280;60035;52.122;5.406;2024-02-26T00:54:02;100207.72;;;4.73;100.00
72157;BME280;60035;52.122;5.406;2024-02-26T00:56:33;100205.22;;;4.71;100.00
72157;BME280;60035;52.122;5.406;2024-02-26T00:59:04;100206.91;;;4.69;100.00
72157;BME280;60035;52.122;5.406;2024-02-26T01:01:38;100202.69;;;4.68;100.00
72157;BME280;60035;52.122;5.406;2024-02-26T01:04:09;100211.19;;;4.67;100.00
72157;BME280;60035;52.122;5.406;2024-02-26T01:06:41;100210.31;;;4.68;100.00
72157;BME280;60035;52.122;5.406;2024-02-26T01:09:12;100205.22;;;4.68;100.00
72157;BME280;60035;52.122;5.406;2024-02-26T01:11:46;100206.06;;;4.70;100.00
72157;BME280;60035;52.122;5.406;2024-02-26T01:14:17;100201.00;;;4.70;100.00
72157;BME280;60035;52.122;5.406;2024-02-26T01:16:51;100204.34;;;4.71;100.00
72157;BME280;60035;52.122;5.406;2024-02-26T01:19:22;100200.13;;;4.70;100.00
72157;BME280;60035;52.122;5.406;2024-02-26T01:21:54;100204.34;;;4.71;100.00
72157;BME280;60035;52.122;5.406;2024-02-26T01:24:25;100197.59;;;4.70;100.00
72157;BME280;60035;52.122;5.406;2024-02-26T01:26:56;100191.66;;;4.71;100.00
72157;BME280;60035;52.122;5.406;2024-02-26T01:29:28;100197.56;;;4.73;100.00
72157;BME280;60035;52.122;5.406;2024-02-26T01:32:03;100195.03;;;4.73;100.00
72157;BME280;60035;52.122;5.406;2024-02-26T01:34:34;100194.19;;;4.72;100.00
72157;BME280;60035;52.122;5.406;2024-02-26T01:37:06;100186.56;;;4.74;100.00
72157;BME280;60035;52.122;5.406;2024-02-26T01:39:37;100184.03;;;4.74;100.00
72157;BME280;60035;52.122;5.406;2024-02-26T01:42:09;100178.97;;;4.72;100.00
72157;BME280;60035;52.122;5.406;2024-02-26T01:44:41;100186.56;;;4.72;100.00
72157;BME280;60035;52.122;5.406;2024-02-26T01:47:15;100194.19;;;4.72;100.00
72157;BME280;60035;52.122;5.406;2024-02-26T01:49:47;100195.84;;;4.73;100.00
72157;BME280;60035;52.122;5.406;2024-02-26T01:52:19;100192.50;;;4.73;100.00
72157;BME280;60035;52.122;5.406;2024-02-26T01:54:52;100194.19;;;4.74;100.00
72157;BME280;60035;52.122;5.406;2024-02-26T01:57:23;100194.16;;;4.75;100.00
72157;BME280;60035;52.122;5.406;2024-02-26T01:59:55;100200.00;;;4.77;100.00
72157;BME280;60035;52.122;5.406;2024-02-26T02:02:30;100211.84;;;4.78;100.00
72157;BME280;60035;52.122;5.406;2024-02-26T02:05:03;100199.97;;;4.80;100.00
72157;BME280;60035;52.122;5.406;2024-02-26T02:07:36;100210.13;;;4.80;100.00
72157;BME280;60035;52.122;5.406;2024-02-26T02:10:08;100210.09;;;4.82;100.00
72157;BME280;60035;52.122;5.406;2024-02-26T02:12:41;100214.31;;;4.83;100.00
72157;BME280;60035;52.122;5.406;2024-02-26T02:15:12;100202.47;;;4.83;100.00
72157;BME280;60035;52.122;5.406;2024-02-26T02:17:46;100212.59;;;4.83;100.00
72157;BME280;60035;52.122;5.406;2024-02-26T02:20:18;100210.03;;;4.85;100.00
72157;BME280;60035;52.122;5.406;2024-02-26T02:22:52;100228.66;;;4.86;100.00
72157;BME280;60035;52.122;5.406;2024-02-26T02:25:24;100221.03;;;4.86;100.00
72157;BME280;60035;52.122;5.406;2024-02-26T02:27:55;100225.22;;;4.87;100.00
72157;BME280;60035;52.122;5.406;2024-02-26T02:30:28;100223.56;;;4.87;100.00
72157;BME280;60035;52.122;5.406;2024-02-26T02:33:01;100229.44;;;4.88;100.00
72157;BME280;60035;52.122;5.406;2024-02-26T02:35:33;100226.06;;;4.89;100.00
72157;BME280;60035;52.122;5.406;2024-02-26T02:38:06;100232.81;;;4.90;100.00
72157;BME280;60035;52.122;5.406;2024-02-26T02:40:38;100237.00;;;4.92;100.00
72157;BME280;60035;52.122;5.406;2024-02-26T02:43:09;100231.91;;;4.94;100.00
72157;BME280;60035;52.122;5.406;2024-02-26T02:45:41;100238.66;;;4.93;100.00
72157;BME280;60035;52.122;5.406;2024-02-26T02:48:12;100248.81;;;4.95;100.00
72157;BME280;60035;52.122;5.406;2024-02-26T02:50:44;100251.31;;;4.96;100.00
72157;BME280;60035;52.122;5.406;2024-02-26T02:53:19;100248.78;;;4.96;100.00
72157;BME280;60035;52.122;5.406;2024-02-26T02:55:50;100253.00;;;4.97;100.00
72157;BME280;60035;52.122;5.406;2024-02-26T02:58:21;100254.63;;;5.00;100.00
72157;BME280;60035;52.122;5.406;2024-02-26T03:00:52;100255.50;;;4.99;100.00
72157;BME280;60035;52.122;5.406;2024-02-26T03:03:24;100257.19;;;4.98;100.00
72157;BME280;60035;52.122;5.406;2024-02-26T03:05:56;100260.56;;;4.99;100.00
72157;BME280;60035;52.122;5.406;2024-02-26T03:08:30;100262.22;;;5.00;100.00
72157;BME280;60035;52.122;5.406;2024-02-26T03:11:05;100273.22;;;5.00;100.00
72157;BME280;60035;52.122;5.406;2024-02-26T03:13:37;100286.75;;;5.01;100.00
72157;BME280;60035;52.122;5.406;2024-02-26T03:16:08;100290.13;;;5.02;100.00
72157;BME280;60035;52.122;5.406;2024-02-26T03:18:40;100291.81;;;5.01;100.00
72157;BME280;60035;52.122;5.406;2024-02-26T03:21:11;100293.53;;;5.00;100.00
72157;BME280;60035;52.122;5.406;2024-02-26T03:23:45;100293.53;;;5.00;100.00
72157;BME280;60035;52.122;5.406;2024-02-26T03:26:17;100291.84;;;4.99;100.00
72157;BME280;60035;52.122;5.406;2024-02-26T03:28:49;100295.25;;;4.98;100.00
72157;BME280;60035;52.122;5.406;2024-02-26T03:31:20;100296.94;;;4.98;100.00
72157;BME280;60035;52.122;5.406;2024-02-26T03:33:51;100300.34;;;4.97;100.00
72157;BME280;60035;52.122;5.406;2024-02-26T03:36:22;100307.16;;;4.95;100.00
72157;BME280;60035;52.122;5.406;2024-02-26T03:38:57;100305.47;;;4.94;100.00
72157;BME280;60035;52.122;5.406;2024-02-26T03:41:32;100300.44;;;4.92;100.00
72157;BME280;60035;52.122;5.406;2024-02-26T03:44:03;100297.91;;;4.89;100.00
72157;BME280;60035;52.122;5.406;2024-02-26T03:46:34;100300.47;;;4.88;100.00
72157;BME280;60035;52.122;5.406;2024-02-26T03:49:06;100303.03;;;4.86;100.00
72157;BME280;60035;52.122;5.406;2024-02-26T03:51:37;100305.56;;;4.86;100.00
72157;BME280;60035;52.122;5.406;2024-02-26T03:54:11;100303.94;;;4.83;100.00
72157;BME280;60035;52.122;5.406;2024-02-26T03:56:43;100303.09;;;4.83;100.00
72157;BME280;60035;52.122;5.406;2024-02-26T03:59:14;100303.09;;;4.83;100.00
72157;BME280;60035;52.122;5.406;2024-02-26T04:01:47;100306.50;;;4.82;100.00
72157;BME280;60035;52.122;5.406;2024-02-26T04:04:19;100303.09;;;4.81;100.00
72157;BME280;60035;52.122;5.406;2024-02-26T04:06:50;100309.06;;;4.80;100.00
72157;BME280;60035;52.122;5.406;2024-02-26T04:09:24;100309.88;;;4.81;100.00
72157;BME280;60035;52.122;5.406;2024-02-26T04:11:56;100310.72;;;4.83;100.00
72157;BME280;60035;52.122;5.406;2024-02-26T04:14:27;100314.13;;;4.80;100.00
72157;BME280;60035;52.122;5.406;2024-02-26T04:16:58;100316.63;;;4.82;100.00
72157;BME280;60035;52.122;5.406;2024-02-26T04:19:30;100321.72;;;4.82;100.00
72157;BME280;60035;52.122;5.406;2024-02-26T04:22:01;100321.72;;;4.82;100.00
72157;BME280;60035;52.122;5.406;2024-02-26T04:24:36;100320.00;;;4.82;100.00
72157;BME280;60035;52.122;5.406;2024-02-26T04:27:07;100328.47;;;4.83;100.00
72157;BME280;60035;52.122;5.406;2024-02-26T04:29:39;100327.56;;;4.84;100.00
72157;BME280;60035;52.122;5.406;2024-02-26T04:32:10;100329.28;;;4.83;100.00
72157;BME280;60035;52.122;5.406;2024-02-26T04:34:41;100330.97;;;4.84;100.00
72157;BME280;60035;52.122;5.406;2024-02-26T04:37:12;100336.88;;;4.85;100.00
72157;BME280;60035;52.122;5.406;2024-02-26T04:39:46;100338.59;;;4.84;100.00
72157;BME280;60035;52.122;5.406;2024-02-26T04:42:18;100339.38;;;4.87;100.00
72157;BME280;60035;52.122;5.406;2024-02-26T04:44:49;100340.25;;;4.87;100.00
72157;BME280;60035;52.122;5.406;2024-02-26T04:47:20;100330.91;;;4.88;100.00
72157;BME280;60035;52.122;5.406;2024-02-26T04:49:52;100335.13;;;4.89;100.00
72157;BME280;60035;52.122;5.406;2024-02-26T04:52:23;100336.81;;;4.88;100.00
72157;BME280;60035;52.122;5.406;2024-02-26T04:54:57;100339.34;;;4.90;100.00
72157;BME280;60035;52.122;5.406;2024-02-26T04:57:30;100346.97;;;4.90;100.00
72157;BME280;60035;52.122;5.406;2024-02-26T05:00:01;100346.94;;;4.91;100.00
72157;BME280;60035;52.122;5.406;2024-02-26T05:02:33;100349.44;;;4.93;100.00
72157;BME280;60035;52.122;5.406;2024-02-26T05:05:07;100351.16;;;4.92;100.00
72157;BME280;60035;52.122;5.406;2024-02-26T05:07:40;100351.97;;;4.94;100.00
72157;BME280;60035;52.122;5.406;2024-02-26T05:10:15;100363.81;;;4.94;100.00
72157;BME280;60035;52.122;5.406;2024-02-26T05:12:47;100366.34;;;4.94;100.00
72157;BME280;60035;52.122;5.406;2024-02-26T05:15:18;100360.44;;;4.95;100.00
72157;BME280;60035;52.122;5.406;2024-02-26T05:17:50;100357.03;;;4.94;100.00
72157;BME280;60035;52.122;5.406;2024-02-26T05:20:21;100359.56;;;4.96;100.00
72157;BME280;60035;52.122;5.406;2024-02-26T05:22:53;100362.09;;;4.96;100.00
72157;BME280;60035;52.122;5.406;2024-02-26T05:25:29;100351.94;;;4.96;100.00
72157;BME280;60035;52.122;5.406;2024-02-26T05:28:00;100362.09;;;4.96;100.00
72157;BME280;60035;52.122;5.406;2024-02-26T05:30:32;100359.56;;;4.94;100.00
72157;BME280;60035;52.122;5.406;2024-02-26T05:33:04;100359.56;;;4.94;100.00
72157;BME280;60035;52.122;5.406;2024-02-26T05:35:35;100367.19;;;4.94;100.00
72157;BME280;60035;52.122;5.406;2024-02-26T05:38:08;100369.72;;;4.94;100.00
72157;BME280;60035;52.122;5.406;2024-02-26T05:40:42;100368.91;;;4.92;100.00
72157;BME280;60035;52.122;5.406;2024-02-26T05:43:13;100373.13;;;4.92;100.00
72157;BME280;60035;52.122;5.406;2024-02-26T05:45:45;100373.13;;;4.92;100.00
72157;BME280;60035;52.122;5.406;2024-02-26T05:48:17;100379.94;;;4.91;100.00
72157;BME280;60035;52.122;5.406;2024-02-26T05:50:48;100385.00;;;4.91;100.00
72157;BME280;60035;52.122;5.406;2024-02-26T05:53:20;100387.56;;;4.90;100.00
72157;BME280;60035;52.122;5.406;2024-02-26T05:55:54;100391.81;;;4.88;100.00
72157;BME280;60035;52.122;5.406;2024-02-26T05:58:25;100382.47;;;4.88;100.00
72157;BME280;60035;52.122;5.406;2024-02-26T06:00:57;100396.06;;;4.87;100.00
72157;BME280;60035;52.122;5.406;2024-02-26T06:03:29;100407.88;;;4.87;100.00
72157;BME280;60035;52.122;5.406;2024-02-26T06:06:00;100405.34;;;4.87;100.00
72157;BME280;60035;52.122;5.406;2024-02-26T06:08:31;100396.06;;;4.87;100.00
72157;BME280;60035;52.122;5.406;2024-02-26T06:11:07;100398.59;;;4.87;100.00
72157;BME280;60035;52.122;5.406;2024-02-26T06:13:39;100401.94;;;4.88;100.00
72157;BME280;60035;52.122;5.406;2024-02-26T06:16:10;100408.72;;;4.89;100.00
72157;BME280;60035;52.122;5.406;2024-02-26T06:18:42;100417.16;;;4.88;100.00
72157;BME280;60035;52.122;5.406;2024-02-26T06:21:13;100413.78;;;4.89;100.00
72157;BME280;60035;52.122;5.406;2024-02-26T06:23:45;100428.97;;;4.90;100.00
72157;BME280;60035;52.122;5.406;2024-02-26T06:26:19;100420.53;;;4.90;100.00
72157;BME280;60035;52.122;5.406;2024-02-26T06:28:50;100426.41;;;4.92;100.00
72157;BME280;60035;52.122;5.406;2024-02-26T06:31:23;100423.06;;;4.91;100.00
72157;BME280;60035;52.122;5.406;2024-02-26T06:33:55;100429.81;;;4.92;100.00
72157;BME280;60035;52.122;5.406;2024-02-26T06:36:27;100429.78;;;4.94;100.00
72157;BME280;60035;52.122;5.406;2024-02-26T06:38:59;100434.88;;;4.92;100.00
72157;BME280;60035;52.122;5.406;2024-02-26T06:41:36;100429.81;;;4.92;100.00
72157;BME280;60035;52.122;5.406;2024-02-26T06:44:07;100446.69;;;4.93;100.00
72157;BME280;60035;52.122;5.406;2024-02-26T06:46:38;100447.53;;;4.94;100.00
72157;BME280;60035;52.122;5.406;2024-02-26T06:49:09;100449.22;;;4.93;100.00
72157;BME280;60035;52.122;5.406;2024-02-26T06:51:41;100450.94;;;4.93;100.00
72157;BME280;60035;52.122;5.406;2024-02-26T06:54:12;100454.28;;;4.93;100.00
72157;BME280;60035;52.122;5.406;2024-02-26T06:56:46;100456.00;;;4.93;100.00
72157;BME280;60035;52.122;5.406;2024-02-26T06:59:18;100453.47;;;4.93;100.00
72157;BME280;60035;52.122;5.406;2024-02-26T07:01:51;100465.31;;;4.94;100.00
72157;BME280;60035;52.122;5.406;2024-02-26T07:04:23;100452.63;;;4.94;100.00
72157;BME280;60035;52.122;5.406;2024-02-26T07:06:54;100470.34;;;4.95;100.00
72157;BME280;60035;52.122;5.406;2024-02-26T07:09:26;100467.81;;;4.95;100.00
72157;BME280;60035;52.122;5.406;2024-02-26T07:12:00;100474.59;;;4.96;100.00
72157;BME280;60035;52.122;5.406;2024-02-26T07:14:31;100480.47;;;4.98;100.00
72157;BME280;60035;52.122;5.406;2024-02-26T07:17:05;100485.53;;;4.98;100.00
72157;BME280;60035;52.122;5.406;2024-02-26T07:19:36;100481.31;;;4.99;100.00
72157;BME280;60035;52.122;5.406;2024-02-26T07:22:07;100485.50;;;5.00;100.00
72157;BME280;60035;52.122;5.406;2024-02-26T07:24:39;100491.44;;;5.00;100.00
72157;BME280;60035;52.122;5.406;2024-02-26T07:27:13;100490.59;;;5.00;100.00
72157;BME280;60035;52.122;5.406;2024-02-26T07:29:45;100497.34;;;5.01;100.00
72157;BME280;60035;52.122;5.406;2024-02-26T07:32:17;100495.63;;;5.03;100.00
72157;BME280;60035;52.122;5.406;2024-02-26T07:34:50;100490.56;;;5.03;100.00
72157;BME280;60035;52.122;5.406;2024-02-26T07:37:21;100508.31;;;5.05;100.00
72157;BME280;60035;52.122;5.406;2024-02-26T07:39:52;100509.13;;;5.05;100.00
72157;BME280;60035;52.122;5.406;2024-02-26T07:42:27;100499.81;;;5.07;100.00
72157;BME280;60035;52.122;5.406;2024-02-26T07:44:58;100504.88;;;5.09;100.00
72157;BME280;60035;52.122;5.406;2024-02-26T07:47:29;100505.69;;;5.09;100.00
72157;BME280;60035;52.122;5.406;2024-02-26T07:50:02;100499.75;;;5.10;100.00
72157;BME280;60035;52.122;5.406;2024-02-26T07:52:34;100520.06;;;5.10;100.00
72157;BME280;60035;52.122;5.406;2024-02-26T07:55:07;100526.84;;;5.11;100.00
72157;BME280;60035;52.122;5.406;2024-02-26T07:57:41;100532.75;;;5.13;100.00
72157;BME280;60035;52.122;5.406;2024-02-26T08:00:20;100531.88;;;5.13;100.00
72157;BME280;60035;52.122;5.406;2024-02-26T08:02:53;100535.28;;;5.13;100.00
72157;BME280;60035;52.122;5.406;2024-02-26T08:05:31;100539.50;;;5.13;100.00
72157;BME280;60035;52.122;5.406;2024-02-26T08:08:04;100541.16;;;5.15;100.00
72157;BME280;60035;52.122;5.406;2024-02-26T08:10:35;100550.47;;;5.16;100.00
72157;BME280;60035;52.122;5.406;2024-02-26T08:13:09;100552.97;;;5.18;100.00
72157;BME280;60035;52.122;5.406;2024-02-26T08:15:41;100547.03;;;5.21;100.00
72157;BME280;60035;52.122;5.406;2024-02-26T08:18:12;100555.47;;;5.23;100.00
72157;BME280;60035;52.122;5.406;2024-02-26T08:20:44;100558.00;;;5.24;100.00
72157;BME280;60035;52.122;5.406;2024-02-26T08:23:17;100561.34;;;5.25;100.00
72157;BME280;60035;52.122;5.406;2024-02-26T08:25:48;100558.78;;;5.26;100.00
72157;BME280;60035;52.122;5.406;2024-02-26T08:28:22;100566.41;;;5.26;100.00
72157;BME280;60035;52.122;5.406;2024-02-26T08:30:54;100570.63;;;5.27;100.00
72157;BME280;60035;52.122;5.406;2024-02-26T08:33:26;100574.03;;;5.26;100.00
72157;BME280;60035;52.122;5.406;2024-02-26T08:35:58;100576.56;;;5.26;100.00
72157;BME280;60035;52.122;5.406;2024-02-26T08:38:29;100576.53;;;5.29;100.00
72157;BME280;60035;52.122;5.406;2024-02-26T08:41:02;100585.81;;;5.32;100.00
72157;BME280;60035;52.122;5.406;2024-02-26T08:43:37;100589.19;;;5.32;100.00
72157;BME280;60035;52.122;5.406;2024-02-26T08:46:08;100579.00;;;5.34;100.00
72157;BME280;60035;52.122;5.406;2024-02-26T08:48:40;100594.28;;;5.31;100.00
72157;BME280;60035;52.122;5.406;2024-02-26T08:51:12;100592.56;;;5.34;100.00
72157;BME280;60035;52.122;5.406;2024-02-26T08:53:43;100591.69;;;5.36;100.00
72157;BME280;60035;52.122;5.406;2024-02-26T08:56:15;100601.84;;;5.36;100.00
72157;BME280;60035;52.122;5.406;2024-02-26T08:58:49;100604.38;;;5.36;100.00
72157;BME280;60035;52.122;5.406;2024-02-26T09:01:24;100610.31;;;5.36;100.00
72157;BME280;60035;52.122;5.406;2024-02-26T09:03:55;100607.78;;;5.33;100.00
72157;BME280;60035;52.122;5.406;2024-02-26T09:06:27;100615.44;;;5.30;100.00
72157;BME280;60035;52.122;5.406;2024-02-26T09:08:59;100611.25;;;5.27;100.00
72157;BME280;60035;52.122;5.406;2024-02-26T09:11:31;100614.66;;;5.25;100.00
72157;BME280;60035;52.122;5.406;2024-02-26T09:14:06;100624.81;;;5.25;100.00
72157;BME280;60035;52.122;5.406;2024-02-26T09:16:37;100624.84;;;5.23;100.00
72157;BME280;60035;52.122;5.406;2024-02-26T09:19:08;100624.84;;;5.23;100.00
72157;BME280;60035;52.122;5.406;2024-02-26T09:21:42;100621.47;;;5.23;100.00
72157;BME280;60035;52.122;5.406;2024-02-26T09:24:14;100626.53;;;5.24;100.00
72157;BME280;60035;52.122;5.406;2024-02-26T09:26:45;100627.41;;;5.22;100.00
72157;BME280;60035;52.122;5.406;2024-02-26T09:29:18;100640.97;;;5.19;100.00
72157;BME280;60035;52.122;5.406;2024-02-26T09:31:50;100646.84;;;5.21;100.00
72157;BME280;60035;52.122;5.406;2024-02-26T09:34:21;100640.09;;;5.22;100.00
72157;BME280;60035;52.122;5.406;2024-02-26T09:36:53;100652.78;;;5.22;100.00
72157;BME280;60035;52.122;5.406;2024-02-26T09:39:35;100655.31;;;5.23;100.00
72157;BME280;60035;52.122;5.406;2024-02-26T09:42:06;100658.66;;;5.24;100.00
72157;BME280;60035;52.122;5.406;2024-02-26T09:44:43;100657.84;;;5.22;100.00
72157;BME280;60035;52.122;5.406;2024-02-26T09:47:15;100660.34;;;5.25;100.00
72157;BME280;60035;52.122;5.406;2024-02-26T09:49:49;100662.03;;;5.26;100.00
72157;BME280;60035;52.122;5.406;2024-02-26T09:52:21;100665.44;;;5.25;100.00
72157;BME280;60035;52.122;5.406;2024-02-26T09:54:54;100659.53;;;5.23;100.00
72157;BME280;60035;52.122;5.406;2024-02-26T09:57:26;100670.53;;;5.23;100.00
72157;BME280;60035;52.122;5.406;2024-02-26T10:00:02;100676.44;;;5.27;100.00
72157;BME280;60035;52.122;5.406;2024-02-26T10:02:36;100680.66;;;5.25;100.00
72157;BME280;60035;52.122;5.406;2024-02-26T10:05:10;100684.91;;;5.24;100.00
72157;BME280;60035;52.122;5.406;2024-02-26T10:07:44;100684.03;;;5.27;100.00
72157;BME280;60035;52.122;5.406;2024-02-26T10:10:16;100683.19;;;5.26;100.00
72157;BME280;60035;52.122;5.406;2024-02-26T10:12:48;100688.25;;;5.26;100.00
72157;BME280;60035;52.122;5.406;2024-02-26T10:15:22;100693.34;;;5.26;100.00
72157;BME280;60035;52.122;5.406;2024-02-26T10:17:54;100700.94;;;5.26;100.00
72157;BME280;60035;52.122;5.406;2024-02-26T10:20:25;100700.09;;;5.27;100.00
72157;BME280;60035;52.122;5.406;2024-02-26T10:23:02;100706.84;;;5.30;100.00
72157;BME280;60035;52.122;5.406;2024-02-26T10:25:34;100706.84;;;5.30;100.00
72157;BME280;60035;52.122;5.406;2024-02-26T10:28:06;100710.22;;;5.32;100.00
72157;BME280;60035;52.122;5.406;2024-02-26T10:30:40;100721.19;;;5.34;100.00
72157;BME280;60035;52.122;5.406;2024-02-26T10:33:13;100727.13;;;5.34;100.00
72157;BME280;60035;52.122;5.406;2024-02-26T10:35:46;100724.59;;;5.34;100.00
72157;BME280;60035;52.122;5.406;2024-02-26T10:38:17;100727.13;;;5.33;100.00
72157;BME280;60035;52.122;5.406;2024-02-26T10:40:48;100731.31;;;5.36;100.00
72157;BME280;60035;52.122;5.406;2024-02-26T10:43:20;100738.06;;;5.38;100.00
72157;BME280;60035;52.122;5.406;2024-02-26T10:45:54;100739.75;;;5.41;100.00
72157;BME280;60035;52.122;5.406;2024-02-26T10:48:26;100749.06;;;5.42;100.00
72157;BME280;60035;52.122;5.406;2024-02-26T10:50:58;100753.28;;;5.43;100.00
72157;BME280;60035;52.122;5.406;2024-02-26T10:53:30;100754.09;;;5.43;100.00
72157;BME280;60035;52.122;5.406;2024-02-26T10:56:04;100754.09;;;5.45;100.00
72157;BME280;60035;52.122;5.406;2024-02-26T10:58:36;100763.34;;;5.49;100.00
72157;BME280;60035;52.122;5.406;2024-02-26T11:01:10;100770.09;;;5.55;100.00
72157;BME280;60035;52.122;5.406;2024-02-26T11:03:42;100766.66;;;5.59;100.00
72157;BME280;60035;52.122;5.406;2024-02-26T11:06:15;100777.69;;;5.58;100.00
72157;BME280;60035;52.122;5.406;2024-02-26T11:08:48;100771.72;;;5.60;100.00
72157;BME280;60035;52.122;5.406;2024-02-26T11:11:20;100779.31;;;5.65;100.00
72157;BME280;60035;52.122;5.406;2024-02-26T11:13:53;100780.13;;;5.67;100.00
72157;BME280;60035;52.122;5.406;2024-02-26T11:16:27;100790.28;;;5.67;100.00
72157;BME280;60035;52.122;5.406;2024-02-26T11:19:00;100786.91;;;5.68;100.00
72157;BME280;60035;52.122;5.406;2024-02-26T11:21:34;100786.84;;;5.71;100.00
72157;BME280;60035;52.122;5.406;2024-02-26T11:24:12;100791.94;;;5.71;100.00
72157;BME280;60035;52.122;5.406;2024-02-26T11:26:48;100791.91;;;5.73;100.00
72157;BME280;60035;52.122;5.406;2024-02-26T11:29:28;100802.09;;;5.71;100.00
72157;BME280;60035;52.122;5.406;2024-02-26T11:32:06;100804.66;;;5.70;100.00
72157;BME280;60035;52.122;5.406;2024-02-26T11:34:38;100800.44;;;5.67;100.00
72157;BME280;60035;52.122;5.406;2024-02-26T11:37:11;100799.63;;;5.66;100.00
72157;BME280;60035;52.122;5.406;2024-02-26T11:39:43;100814.81;;;5.70;100.00
72157;BME280;60035;52.122;5.406;2024-02-26T11:42:15;100816.50;;;5.71;100.00
72157;BME280;60035;52.122;5.406;2024-02-26T11:44:47;100815.69;;;5.67;100.00
72157;BME280;60035;52.122;5.406;2024-02-26T11:47:22;100819.06;;;5.66;100.00
72157;BME280;60035;52.122;5.406;2024-02-26T11:49:55;100822.47;;;5.66;100.00
72157;BME280;60035;52.122;5.406;2024-02-26T11:52:26;100817.38;;;5.68;100.00
72157;BME280;60035;52.122;5.406;2024-02-26T11:54:57;100824.16;;;5.67;100.00
72157;BME280;60035;52.122;5.406;2024-02-26T11:57:30;100825.03;;;5.66;100.00
72157;BME280;60035;52.122;5.406;2024-02-26T12:00:12;100829.22;;;5.71;100.00
72157;BME280;60035;52.122;5.406;2024-02-26T12:02:50;100831.72;;;5.72;100.00
72157;BME280;60035;52.122;5.406;2024-02-26T12:05:26;100841.00;;;5.76;100.00
72157;BME280;60035;52.122;5.406;2024-02-26T12:08:03;100845.19;;;5.80;100.00
72157;BME280;60035;52.122;5.406;2024-02-26T12:10:37;100845.16;;;5.85;100.00
72157;BME280;60035;52.122;5.406;2024-02-26T12:13:12;100844.31;;;5.84;100.00
72157;BME280;60035;52.122;5.406;2024-02-26T12:15:55;100847.72;;;5.82;100.00
72157;BME280;60035;52.122;5.406;2024-02-26T12:18:30;100855.34;;;5.83;100.00
72157;BME280;60035;52.122;5.406;2024-02-26T12:21:03;100859.56;;;5.84;100.00
72157;BME280;60035;52.122;5.406;2024-02-26T12:23:40;100858.66;;;5.89;100.00
72157;BME280;60035;52.122;5.406;2024-02-26T12:26:11;100859.50;;;5.91;100.00
72157;BME280;60035;52.122;5.406;2024-02-26T12:28:42;100863.75;;;5.90;100.00
72157;BME280;60035;52.122;5.406;2024-02-26T12:31:14;100858.66;;;5.90;100.00
72157;BME280;60035;52.122;5.406;2024-02-26T12:33:48;100881.53;;;5.92;100.00
72157;BME280;60035;52.122;5.406;2024-02-26T12:36:19;100877.25;;;5.94;100.00
72157;BME280;60035;52.122;5.406;2024-02-26T12:38:51;100870.50;;;5.94;100.00
72157;BME280;60035;52.122;5.406;2024-02-26T12:41:23;100884.00;;;5.98;100.00
72157;BME280;60035;52.122;5.406;2024-02-26T12:43:55;100874.69;;;6.00;100.00
72157;BME280;60035;52.122;5.406;2024-02-26T12:46:25;100874.72;;;5.98;100.00
72157;BME280;60035;52.122;5.406;2024-02-26T12:49:00;100891.63;;;5.96;100.00
72157;BME280;60035;52.122;5.406;2024-02-26T12:51:33;100883.16;;;5.97;100.00
72157;BME280;60035;52.122;5.406;2024-02-26T12:54:05;100882.34;;;5.95;100.00
72157;BME280;60035;52.122;5.406;2024-02-26T12:56:36;100890.78;;;6.00;100.00
72157;BME280;60035;52.122;5.406;2024-02-26T12:59:08;100902.63;;;6.05;100.00
72157;BME280;60035;52.122;5.406;2024-02-26T13:01:40;100874.66;;;6.05;100.00
72157;BME280;60035;52.122;5.406;2024-02-26T13:04:14;100904.38;;;5.99;100.00
72157;BME280;60035;52.122;5.406;2024-02-26T13:06:46;100904.38;;;5.99;100.00
72157;BME280;60035;52.122;5.406;2024-02-26T13:09:17;100902.63;;;6.02;100.00
72157;BME280;60035;52.122;5.406;2024-02-26T13:11:53;100909.44;;;5.99;100.00
72157;BME280;60035;52.122;5.406;2024-02-26T13:14:25;100911.97;;;6.01;100.00
72157;BME280;60035;52.122;5.406;2024-02-26T13:16:58;100905.16;;;6.03;100.00